createdAt,value
2023-03-02T00:01:45.456Z,101774.47
2023-03-02T00:04:27.732Z,101769.22
2023-03-02T00:06:59.688Z,101776.06
2023-03-02T00:09:28.152Z,101777.84
2023-03-02T00:11:55.258Z,101774.28
2023-03-02T00:14:22.309Z,101774.38
2023-03-02T00:16:49.240Z,101774.56
2023-03-02T00:19:16.275Z,101776.47
2023-03-02T00:21:43.316Z,101783.41
2023-03-02T00:24:10.372Z,101781.63
2023-03-02T00:26:37.776Z,101778.16
2023-03-02T00:29:04.877Z,101780.63
2023-03-02T00:31:32.629Z,101772.69
2023-03-02T00:33:59.566Z,101779.44
2023-03-02T00:36:26.482Z,101775.88
2023-03-02T00:38:53.668Z,101777.41
2023-03-02T00:41:21.603Z,101774.63
2023-03-02T00:43:50.162Z,101772.84
2023-03-02T00:46:22.375Z,101770.38
2023-03-02T00:48:50.088Z,101768.88
2023-03-02T00:51:17.957Z,101768.97
2023-03-02T00:53:45.143Z,101771.53
2023-03-02T00:56:12.221Z,101771.53
2023-03-02T00:58:39.726Z,101768.09
2023-03-02T01:01:13.176Z,101767.97
2023-03-02T01:03:40.367Z,101772.25
2023-03-02T01:06:19.538Z,101780.66
2023-03-02T01:08:46.451Z,101770.25
2023-03-02T01:11:16.328Z,101764.13
2023-03-02T01:13:43.916Z,101764.72
2023-03-02T01:16:11.902Z,101764.72
2023-03-02T01:18:39.032Z,101752.63
2023-03-02T01:21:12.961Z,101751.78
2023-03-02T01:23:39.915Z,101744.91
2023-03-02T01:26:07.698Z,101747.47
2023-03-02T01:28:34.588Z,101748.31
2023-03-02T01:31:03.164Z,101748.09
2023-03-02T01:33:30.837Z,101749.59
2023-03-02T01:35:57.924Z,101749.50
2023-03-02T01:38:24.906Z,101746.03
2023-03-02T01:40:51.859Z,101738.09
2023-03-02T01:43:18.751Z,101743.16
2023-03-02T01:45:54.871Z,101742.19
2023-03-02T01:48:58.675Z,101741.00
2023-03-02T01:51:28.921Z,101735.88
2023-03-02T01:54:01.313Z,101740.13
2023-03-02T01:56:34.782Z,101723.69
2023-03-02T01:59:09.481Z,101722.88
2023-03-02T02:01:41.406Z,101714.16
2023-03-02T02:04:08.597Z,101713.19
2023-03-02T02:06:41.159Z,101710.34
2023-03-02T02:09:13.490Z,101710.94
2023-03-02T02:11:40.363Z,101713.50
2023-03-02T02:14:07.568Z,101716.97
2023-03-02T02:16:36.186Z,101705.69
2023-03-02T02:19:12.923Z,101707.97
2023-03-02T02:21:39.940Z,101724.09
2023-03-02T02:24:22.100Z,101714.44
2023-03-02T02:26:57.383Z,101712.44
2023-03-02T02:29:30.997Z,101708.00
2023-03-02T02:32:22.863Z,101711.25
2023-03-02T02:35:12.643Z,101698.28
2023-03-02T02:37:55.746Z,101708.50
2023-03-02T02:40:48.501Z,101699.81
2023-03-02T02:43:19.866Z,101700.69
2023-03-02T02:45:52.337Z,101708.31
2023-03-02T02:48:25.365Z,101706.53
2023-03-02T02:51:00.234Z,101712.47
2023-03-02T02:53:58.604Z,101701.19
2023-03-02T02:56:33.343Z,101706.22
2023-03-02T02:59:17.610Z,101716.31
2023-03-02T03:01:46.873Z,101710.13
2023-03-02T03:04:18.900Z,101706.34
2023-03-02T03:07:01.399Z,101709.50
2023-03-02T03:09:28.951Z,101699.22
2023-03-02T03:12:02.195Z,101697.44
2023-03-02T03:14:35.612Z,101696.53
2023-03-02T03:17:02.635Z,101702.56
2023-03-02T03:19:32.714Z,101704.25
2023-03-02T03:22:02.503Z,101704.25
2023-03-02T03:24:32.091Z,101695.47
2023-03-02T03:26:59.764Z,101701.22
2023-03-02T03:29:29.346Z,101701.78
2023-03-02T03:31:58.298Z,101694.56
2023-03-02T03:34:25.942Z,101697.75
2023-03-02T03:36:53.074Z,101696.66
2023-03-02T03:39:20.361Z,101704.16
2023-03-02T03:41:47.295Z,101702.38
2023-03-02T03:44:14.234Z,101703.06
2023-03-02T03:46:41.142Z,101696.06
2023-03-02T03:49:08.034Z,101695.06
2023-03-02T03:51:35.233Z,101690.50
2023-03-02T03:54:08.370Z,101691.28
2023-03-02T03:56:40.990Z,101700.69
2023-03-02T03:59:12.485Z,101699.69
2023-03-02T04:01:52.718Z,101694.44
2023-03-02T04:04:27.311Z,101697.69
2023-03-02T04:06:54.645Z,101694.16
2023-03-02T04:09:23.270Z,101691.59
2023-03-02T04:11:54.548Z,101694.94
2023-03-02T04:14:23.714Z,101687.13
2023-03-02T04:16:51.814Z,101683.66
2023-03-02T04:19:19.089Z,101684.44
2023-03-02T04:21:50.665Z,101691.94
2023-03-02T04:24:20.341Z,101689.84
2023-03-02T04:26:49.166Z,101684.31
2023-03-02T04:29:17.932Z,101692.59
2023-03-02T04:31:44.808Z,101692.41
2023-03-02T04:34:11.845Z,101692.22
2023-03-02T04:36:40.159Z,101695.56
2023-03-02T04:39:08.032Z,101691.31
2023-03-02T04:41:35.818Z,101700.88
2023-03-02T04:44:03.025Z,101702.66
2023-03-02T04:46:30.030Z,101703.47
2023-03-02T04:48:57.064Z,101707.81
2023-03-02T04:51:31.262Z,101711.16
2023-03-02T04:54:05.896Z,101711.09
2023-03-02T04:56:33.449Z,101712.56
2023-03-02T04:59:00.777Z,101708.09
2023-03-02T05:01:28.299Z,101707.78
2023-03-02T05:03:55.281Z,101708.38
2023-03-02T05:06:24.585Z,101698.66
2023-03-02T05:08:53.406Z,101695.78
2023-03-02T05:11:29.869Z,101693.88
2023-03-02T05:14:01.002Z,101701.47
2023-03-02T05:16:32.474Z,101691.91
2023-03-02T05:19:01.544Z,101691.81
2023-03-02T05:21:28.488Z,101689.13
2023-03-02T05:23:55.399Z,101689.91
2023-03-02T05:26:22.835Z,101696.72
2023-03-02T05:28:50.114Z,101694.06
2023-03-02T05:31:24.350Z,101691.38
2023-03-02T05:33:51.334Z,101696.50
2023-03-02T05:36:19.900Z,101698.19
2023-03-02T05:38:48.229Z,101697.19
2023-03-02T05:41:15.451Z,101695.50
2023-03-02T05:43:42.393Z,101697.06
2023-03-02T05:46:09.310Z,101690.28
2023-03-02T05:48:36.218Z,101693.72
2023-03-02T05:51:03.331Z,101694.63
2023-03-02T05:53:30.251Z,101693.84
2023-03-02T05:55:57.106Z,101697.28
2023-03-02T05:58:24.096Z,101695.94
2023-03-02T06:00:51.847Z,101695.94
2023-03-02T06:03:19.206Z,101690.13
2023-03-02T06:05:50.900Z,101706.63
2023-03-02T06:08:20.109Z,101701.47
2023-03-02T06:10:47.166Z,101698.28
2023-03-02T06:13:14.054Z,101707.09
2023-03-02T06:15:42.589Z,101708.09
2023-03-02T06:18:09.571Z,101709.19
2023-03-02T06:20:36.404Z,101708.59
2023-03-02T06:23:03.276Z,101707.66
2023-03-02T06:25:30.247Z,101716.19
2023-03-02T06:27:57.115Z,101711.50
2023-03-02T06:30:26.064Z,101710.78
2023-03-02T06:32:53.018Z,101713.69
2023-03-02T06:35:20.147Z,101698.09
2023-03-02T06:37:47.202Z,101709.09
2023-03-02T06:40:14.619Z,101707.88
2023-03-02T06:42:42.759Z,101704.41
2023-03-02T06:45:10.819Z,101704.44
2023-03-02T06:47:38.077Z,101709.47
2023-03-02T06:50:06.588Z,101707.63
2023-03-02T06:52:33.734Z,101697.38
2023-03-02T06:55:00.612Z,101716.31
2023-03-02T06:57:33.786Z,101710.50
2023-03-02T07:00:17.033Z,101711.09
2023-03-02T07:02:49.983Z,101715.19
2023-03-02T07:05:17.214Z,101711.50
2023-03-02T07:07:44.247Z,101711.75
2023-03-02T07:10:13.384Z,101717.03
2023-03-02T07:12:41.966Z,101716.41
2023-03-02T07:15:12.218Z,101710.94
2023-03-02T07:17:40.866Z,101708.84
2023-03-02T07:20:09.434Z,101711.00
2023-03-02T07:22:36.518Z,101709.56
2023-03-02T07:25:03.595Z,101707.56
2023-03-02T07:27:31.429Z,101711.72
2023-03-02T07:29:58.341Z,101708.06
2023-03-02T07:32:25.458Z,101708.72
2023-03-02T07:34:52.756Z,101706.94
2023-03-02T07:37:20.074Z,101706.84
2023-03-02T07:39:49.161Z,101712.13
2023-03-02T07:42:17.560Z,101707.28
2023-03-02T07:44:44.562Z,101707.13
2023-03-02T07:47:11.448Z,101716.38
2023-03-02T07:49:38.801Z,101712.94
2023-03-02T07:52:06.317Z,101713.25
2023-03-02T07:54:34.168Z,101718.31
2023-03-02T07:57:01.165Z,101708.09
2023-03-02T07:59:28.889Z,101716.63
2023-03-02T08:01:57.503Z,101709.69
2023-03-02T08:04:25.401Z,101704.41
2023-03-02T08:06:52.574Z,101708.91
2023-03-02T08:09:19.536Z,101699.59
2023-03-02T08:11:47.838Z,101706.31
2023-03-02T08:14:14.925Z,101705.50
2023-03-02T08:16:41.985Z,101704.63
2023-03-02T08:19:08.962Z,101706.59
2023-03-02T08:21:36.022Z,101695.66
2023-03-02T08:24:03.743Z,101704.53
2023-03-02T08:26:31.009Z,101700.22
2023-03-02T08:28:58.839Z,101703.28
2023-03-02T08:31:26.737Z,101703.41
2023-03-02T08:33:54.157Z,101704.78
2023-03-02T08:36:21.797Z,101693.06
2023-03-02T08:38:49.679Z,101697.06
2023-03-02T08:41:20.713Z,101702.97
2023-03-02T08:43:48.485Z,101705.81
2023-03-02T08:46:19.119Z,101696.13
2023-03-02T08:48:46.167Z,101697.44
2023-03-02T08:51:17.797Z,101694.91
2023-03-02T08:53:48.083Z,101687.44
2023-03-02T08:56:26.416Z,101687.28
2023-03-02T08:58:55.867Z,101687.81
2023-03-02T09:01:32.493Z,101677.66
2023-03-02T09:04:00.802Z,101681.81
2023-03-02T09:06:30.181Z,101674.50
2023-03-02T09:08:58.002Z,101671.50
2023-03-02T09:11:26.794Z,101669.03
2023-03-02T09:13:54.623Z,101665.38
2023-03-02T09:16:21.938Z,101660.72
2023-03-02T09:18:48.865Z,101655.16
2023-03-02T09:21:18.677Z,101658.50
2023-03-02T09:23:45.907Z,101661.34
2023-03-02T09:26:12.946Z,101656.25
2023-03-02T09:28:39.904Z,101652.41
2023-03-02T09:31:08.862Z,101658.91
2023-03-02T09:33:36.156Z,101658.28
2023-03-02T09:36:12.010Z,101659.13
2023-03-02T09:38:38.942Z,101653.53
2023-03-02T09:41:20.975Z,101652.47
2023-03-02T09:44:38.589Z,101649.00
2023-03-02T09:47:35.454Z,101654.47
2023-03-02T09:50:30.935Z,101658.06
2023-03-02T09:53:11.920Z,101663.38
2023-03-02T09:55:39.244Z,101657.97
2023-03-02T09:58:17.571Z,101658.06
2023-03-02T10:00:46.377Z,101665.25
2023-03-02T10:03:28.510Z,101672.72
2023-03-02T10:05:56.459Z,101673.16
2023-03-02T10:08:27.788Z,101671.97
2023-03-02T10:11:34.484Z,101668.44
2023-03-02T10:14:12.072Z,101675.06
2023-03-02T10:17:22.055Z,101674.09
2023-03-02T10:19:57.812Z,101670.31
2023-03-02T10:22:36.903Z,101665.78
2023-03-02T10:25:28.669Z,101669.06
2023-03-02T10:28:15.171Z,101669.47
2023-03-02T10:30:42.561Z,101672.59
2023-03-02T10:33:21.812Z,101664.13
2023-03-02T10:35:53.116Z,101668.22
2023-03-02T10:38:23.389Z,101670.06
2023-03-02T10:41:00.384Z,101670.59
2023-03-02T10:43:50.491Z,101667.78
2023-03-02T10:46:17.512Z,101668.97
2023-03-02T10:49:02.659Z,101661.34
2023-03-02T10:51:35.521Z,101665.28
2023-03-02T10:54:10.328Z,101658.56
2023-03-02T10:56:37.964Z,101659.31
2023-03-02T10:59:29.555Z,101652.34
2023-03-02T11:02:22.415Z,101655.91
2023-03-02T12:05:04.809Z,101636.69
2023-03-02T14:23:57.159Z,101487.13
2023-03-02T14:32:34.958Z,101488.59
2023-03-02T14:41:04.455Z,101476.13
2023-03-02T14:43:31.881Z,101470.53
2023-03-02T14:45:58.847Z,101467.28
2023-03-02T14:48:25.716Z,101464.16
2023-03-02T14:50:52.644Z,101470.75
2023-03-02T14:53:26.966Z,101469.25
2023-03-02T14:55:54.068Z,101467.78
2023-03-02T14:58:32.898Z,101465.75
2023-03-02T15:01:00.787Z,101472.72
2023-03-02T15:03:29.325Z,101476.06
2023-03-02T15:06:01.362Z,101467.75
2023-03-02T15:08:29.662Z,101462.88
2023-03-02T15:10:56.686Z,101465.22
2023-03-02T15:13:23.557Z,101472.91
2023-03-02T15:15:50.580Z,101465.78
2023-03-02T15:18:19.817Z,101464.75
2023-03-02T15:20:46.977Z,101469.81
2023-03-02T15:23:13.977Z,101477.56
2023-03-02T15:25:40.950Z,101476.53
2023-03-02T15:28:07.865Z,101473.63
2023-03-02T15:30:34.745Z,101466.84
2023-03-02T15:33:01.663Z,101472.75
2023-03-02T15:35:29.478Z,101463.06
2023-03-02T15:37:58.318Z,101462.25
2023-03-02T15:40:25.711Z,101458.94
2023-03-02T15:42:53.136Z,101463.13
2023-03-02T15:45:20.162Z,101464.66
2023-03-02T15:47:47.418Z,101455.72
2023-03-02T15:50:14.472Z,101460.47
2023-03-02T15:52:41.921Z,101453.88
2023-03-02T15:55:09.598Z,101455.78
2023-03-02T15:57:39.034Z,101456.13
2023-03-02T16:00:07.257Z,101451.31
2023-03-02T16:02:34.499Z,101453.81
2023-03-02T16:05:01.450Z,101454.63
2023-03-02T16:07:28.372Z,101452.94
2023-03-02T16:09:55.264Z,101456.41
2023-03-02T16:12:25.448Z,101451.09
2023-03-02T16:14:52.376Z,101451.47
2023-03-02T16:17:19.315Z,101446.03
2023-03-02T16:19:46.244Z,101449.19
2023-03-02T16:22:13.139Z,101443.88
2023-03-02T16:24:41.828Z,101446.25
2023-03-02T16:27:09.115Z,101445.06
2023-03-02T16:29:36.103Z,101443.00
2023-03-02T16:32:03.106Z,101438.56
2023-03-02T16:34:30.106Z,101443.81
2023-03-02T16:36:56.991Z,101443.28
2023-03-02T16:39:24.190Z,101446.84
2023-03-02T16:41:51.385Z,101441.31
2023-03-02T16:44:18.627Z,101444.63
2023-03-02T16:46:46.194Z,101444.28
2023-03-02T16:49:14.544Z,101452.03
2023-03-02T16:51:42.721Z,101451.19
2023-03-02T16:54:10.423Z,101452.25
2023-03-02T16:56:37.575Z,101455.81
2023-03-02T16:59:04.490Z,101455.09
2023-03-02T17:01:31.472Z,101455.44
2023-03-02T17:03:58.458Z,101465.91
2023-03-02T17:06:25.583Z,101463.50
2023-03-02T17:08:52.680Z,101462.88
2023-03-02T17:11:20.385Z,101470.63
2023-03-02T17:13:47.309Z,101467.59
2023-03-02T17:16:16.135Z,101471.53
2023-03-02T17:18:46.774Z,101465.41
2023-03-02T17:21:16.323Z,101462.91
2023-03-02T17:23:43.749Z,101474.75
2023-03-02T17:26:10.674Z,101483.28
2023-03-02T17:28:38.571Z,101477.22
2023-03-02T17:31:05.832Z,101474.47
2023-03-02T17:33:33.951Z,101479.47
2023-03-02T17:36:11.907Z,101482.84
2023-03-02T17:38:40.303Z,101487.13
2023-03-02T17:41:10.400Z,101486.31
2023-03-02T17:43:40.323Z,101490.03
2023-03-02T17:46:20.103Z,101483.00
2023-03-02T17:48:49.936Z,101479.91
2023-03-02T17:51:17.438Z,101484.69
2023-03-02T17:53:49.617Z,101487.84
2023-03-02T17:56:18.964Z,101492.09
2023-03-02T17:58:46.838Z,101490.50
2023-03-02T18:01:15.792Z,101482.84
2023-03-02T18:03:45.052Z,101495.75
2023-03-02T18:06:13.278Z,101490.59
2023-03-02T18:08:40.916Z,101499.44
2023-03-02T18:11:07.895Z,101496.34
2023-03-02T18:13:34.815Z,101492.41
2023-03-02T18:16:01.759Z,101495.88
2023-03-02T18:18:28.704Z,101499.53
2023-03-02T18:20:55.857Z,101498.81
2023-03-02T18:23:22.782Z,101491.09
2023-03-02T18:25:49.850Z,101497.13
2023-03-02T18:28:17.047Z,101510.91
2023-03-02T18:30:44.745Z,101500.41
2023-03-02T18:33:11.717Z,101504.59
2023-03-02T18:35:38.914Z,101509.84
2023-03-02T18:38:06.226Z,101498.81
2023-03-02T18:40:33.896Z,101506.03
2023-03-02T18:43:00.864Z,101497.53
2023-03-02T18:45:31.207Z,101497.81
2023-03-02T18:47:59.737Z,101505.56
2023-03-02T18:50:28.381Z,101500.97
2023-03-02T18:52:55.660Z,101502.91
2023-03-02T18:55:24.904Z,101499.72
2023-03-02T18:57:55.065Z,101502.66
2023-03-02T19:00:27.821Z,101510.75
2023-03-02T19:02:56.004Z,101507.72
2023-03-02T19:05:26.982Z,101498.66
2023-03-02T19:07:54.829Z,101493.06
2023-03-02T19:10:21.761Z,101488.53
2023-03-02T19:12:48.737Z,101499.72
2023-03-02T19:15:16.154Z,101502.38
2023-03-02T19:17:43.750Z,101507.63
2023-03-02T19:20:18.283Z,101500.16
2023-03-02T19:22:45.983Z,101494.47
2023-03-02T19:25:12.850Z,101506.13
2023-03-02T19:27:40.720Z,101509.66
2023-03-02T19:30:12.288Z,101502.66
2023-03-02T19:32:39.220Z,101495.00
2023-03-02T19:35:06.849Z,101508.16
2023-03-02T19:37:33.738Z,101498.03
2023-03-02T19:40:01.363Z,101495.75
2023-03-02T19:42:30.383Z,101506.28
2023-03-02T19:44:57.422Z,101508.25
2023-03-02T19:47:24.368Z,101510.81
2023-03-02T19:49:51.270Z,101505.31
2023-03-02T19:52:18.156Z,101510.47
2023-03-02T19:54:45.196Z,101507.03
2023-03-02T19:57:12.211Z,101509.50
2023-03-02T19:59:41.101Z,101499.91
2023-03-02T20:02:08.036Z,101507.47
2023-03-02T20:04:35.266Z,101510.56
2023-03-02T20:07:03.075Z,101510.91
2023-03-02T20:09:30.113Z,101509.75
2023-03-02T20:11:58.588Z,101513.47
2023-03-02T20:14:33.878Z,101516.81
2023-03-02T20:17:04.971Z,101519.81
2023-03-02T20:19:31.902Z,101522.31
2023-03-02T20:21:59.002Z,101532.31
2023-03-02T20:24:25.898Z,101529.56
2023-03-02T20:26:52.858Z,101525.00
2023-03-02T20:29:19.776Z,101528.13
2023-03-02T20:31:46.897Z,101530.00
2023-03-02T20:34:16.484Z,101531.94
2023-03-02T20:36:44.469Z,101529.75
2023-03-02T20:39:18.246Z,101541.03
2023-03-02T20:41:45.771Z,101537.78
2023-03-02T20:44:14.655Z,101536.53
2023-03-02T20:46:48.405Z,101526.44
2023-03-02T20:49:15.770Z,101532.81
2023-03-02T20:51:49.196Z,101536.69
2023-03-02T20:54:17.064Z,101539.69
2023-03-02T20:56:44.592Z,101525.94
2023-03-02T20:59:13.341Z,101531.28
2023-03-02T21:01:40.860Z,101546.13
2023-03-02T21:04:07.817Z,101543.66
2023-03-02T21:06:34.916Z,101538.75
2023-03-02T21:09:04.460Z,101539.56
2023-03-02T21:11:31.414Z,101540.28
2023-03-02T21:13:59.558Z,101533.25
2023-03-02T21:16:32.423Z,101538.41
2023-03-02T21:18:59.554Z,101543.66
2023-03-02T21:21:40.366Z,101527.41
2023-03-02T21:24:10.984Z,101531.22
2023-03-02T21:26:38.871Z,101522.09
2023-03-02T21:29:06.328Z,101522.19
2023-03-02T21:31:33.577Z,101528.41
2023-03-02T21:34:00.758Z,101524.06
2023-03-02T21:36:28.517Z,101532.00
2023-03-02T21:38:56.115Z,101532.16
2023-03-02T21:41:23.631Z,101537.56
2023-03-02T21:43:51.351Z,101528.47
2023-03-02T21:46:22.795Z,101535.75
2023-03-02T21:48:51.611Z,101530.31
2023-03-02T21:51:18.700Z,101522.19
2023-03-02T21:53:46.654Z,101516.84
2023-03-02T21:56:20.742Z,101520.41
2023-03-02T21:58:49.857Z,101528.38
2023-03-02T22:01:17.288Z,101514.03
2023-03-02T22:03:44.878Z,101518.56
2023-03-02T22:06:21.888Z,101518.84
2023-03-02T22:08:49.427Z,101520.09
2023-03-02T22:11:34.242Z,101515.94
2023-03-02T22:14:10.652Z,101515.03
2023-03-02T22:16:40.908Z,101510.00
2023-03-02T22:19:28.591Z,101510.09
2023-03-02T22:22:05.515Z,101511.75
2023-03-02T22:24:33.631Z,101511.56
2023-03-02T22:27:23.231Z,101508.91
2023-03-02T22:29:53.077Z,101512.38
2023-03-02T22:32:25.819Z,101499.22
2023-03-02T22:35:31.932Z,101505.25
2023-03-02T22:38:10.761Z,101513.88
2023-03-02T22:40:37.970Z,101499.31
2023-03-02T22:43:29.439Z,101499.16
2023-03-02T22:46:21.767Z,101488.66
2023-03-02T22:48:51.440Z,101487.69
2023-03-02T22:51:21.284Z,101484.41
2023-03-02T22:53:53.485Z,101486.00
2023-03-02T22:56:38.573Z,101486.78
2023-03-02T22:59:25.905Z,101487.59
2023-03-02T23:02:01.567Z,101485.00
2023-03-02T23:04:36.496Z,101487.22
2023-03-02T23:07:16.761Z,101488.44
2023-03-02T23:09:43.899Z,101486.94
2023-03-02T23:12:27.386Z,101465.81
2023-03-02T23:14:57.982Z,101458.19
2023-03-02T23:17:39.549Z,101464.25
2023-03-02T23:20:11.734Z,101470.19
2023-03-02T23:22:39.131Z,101468.25
2023-03-02T23:25:09.286Z,101461.91
2023-03-02T23:27:36.506Z,101454.72
2023-03-02T23:30:06.100Z,101447.09
2023-03-02T23:32:33.151Z,101436.78
2023-03-02T23:35:00.124Z,101435.03
2023-03-02T23:37:27.087Z,101442.94
2023-03-02T23:39:53.958Z,101439.47
2023-03-02T23:42:20.865Z,101456.50
2023-03-02T23:44:47.811Z,101464.81
2023-03-02T23:47:14.735Z,101459.31
2023-03-02T23:49:41.658Z,101477.47
2023-03-02T23:52:08.542Z,101466.69
2023-03-02T23:54:35.411Z,101461.19
2023-03-02T23:57:02.361Z,101466.59
2023-03-02T23:59:29.363Z,101466.97
